sensor_id;sensor_type;location;lat;lon;timestamp;P1;durP1;ratioP1;P2;durP2;ratioP2
24259;SDS011;12384;48.112;18.418;2023-04-23T00:00:12;16.07;;;14.70;;
24259;SDS011;12384;48.112;18.418;2023-04-23T00:02:42;15.90;;;14.70;;
24259;SDS011;12384;48.112;18.418;2023-04-23T00:05:15;14.80;;;13.80;;
24259;SDS011;12384;48.112;18.418;2023-04-23T00:07:44;14.80;;;13.70;;
24259;SDS011;12384;48.112;18.418;2023-04-23T00:10:13;15.17;;;13.87;;
24259;SDS011;12384;48.112;18.418;2023-04-23T00:12:42;14.80;;;13.70;;
24259;SDS011;12384;48.112;18.418;2023-04-23T00:15:12;14.73;;;13.63;;
24259;SDS011;12384;48.112;18.418;2023-04-23T00:17:41;15.30;;;14.10;;
24259;SDS011;12384;48.112;18.418;2023-04-23T00:20:10;15.63;;;14.43;;
24259;SDS011;12384;48.112;18.418;2023-04-23T00:22:38;15.60;;;14.40;;
24259;SDS011;12384;48.112;18.418;2023-04-23T00:25:07;15.60;;;14.30;;
24259;SDS011;12384;48.112;18.418;2023-04-23T00:27:36;15.83;;;14.30;;
24259;SDS011;12384;48.112;18.418;2023-04-23T00:30:06;14.93;;;13.83;;
24259;SDS011;12384;48.112;18.418;2023-04-23T00:32:35;14.40;;;13.30;;
24259;SDS011;12384;48.112;18.418;2023-04-23T00:35:04;14.93;;;13.70;;
24259;SDS011;12384;48.112;18.418;2023-04-23T00:37:33;15.13;;;13.83;;
24259;SDS011;12384;48.112;18.418;2023-04-23T00:40:01;15.27;;;13.97;;
24259;SDS011;12384;48.112;18.418;2023-04-23T00:42:31;15.57;;;14.37;;
24259;SDS011;12384;48.112;18.418;2023-04-23T00:45:00;15.23;;;13.93;;
24259;SDS011;12384;48.112;18.418;2023-04-23T00:47:30;15.50;;;14.23;;
24259;SDS011;12384;48.112;18.418;2023-04-23T00:50:00;15.17;;;14.00;;
24259;SDS011;12384;48.112;18.418;2023-04-23T00:52:29;15.43;;;14.17;;
24259;SDS011;12384;48.112;18.418;2023-04-23T00:54:58;15.50;;;14.17;;
24259;SDS011;12384;48.112;18.418;2023-04-23T00:57:26;14.47;;;13.27;;
24259;SDS011;12384;48.112;18.418;2023-04-23T00:59:55;14.57;;;13.47;;
24259;SDS011;12384;48.112;18.418;2023-04-23T01:02:25;15.47;;;13.83;;
24259;SDS011;12384;48.112;18.418;2023-04-23T01:04:57;17.00;;;15.43;;
24259;SDS011;12384;48.112;18.418;2023-04-23T01:07:27;17.43;;;15.93;;
24259;SDS011;12384;48.112;18.418;2023-04-23T01:09:56;16.53;;;14.97;;
24259;SDS011;12384;48.112;18.418;2023-04-23T01:12:24;14.93;;;13.73;;
24259;SDS011;12384;48.112;18.418;2023-04-23T01:14:54;15.70;;;14.40;;
24259;SDS011;12384;48.112;18.418;2023-04-23T01:17:23;14.93;;;13.73;;
24259;SDS011;12384;48.112;18.418;2023-04-23T01:19:52;14.10;;;13.10;;
24259;SDS011;12384;48.112;18.418;2023-04-23T01:22:22;15.00;;;13.60;;
24259;SDS011;12384;48.112;18.418;2023-04-23T01:24:50;15.60;;;14.40;;
24259;SDS011;12384;48.112;18.418;2023-04-23T01:27:19;14.07;;;13.07;;
24259;SDS011;12384;48.112;18.418;2023-04-23T01:29:50;13.10;;;12.20;;
24259;SDS011;12384;48.112;18.418;2023-04-23T01:32:19;15.43;;;13.80;;
24259;SDS011;12384;48.112;18.418;2023-04-23T01:34:48;15.27;;;14.07;;
24259;SDS011;12384;48.112;18.418;2023-04-23T01:37:19;18.00;;;16.20;;
24259;SDS011;12384;48.112;18.418;2023-04-23T01:39:50;16.13;;;14.73;;
24259;SDS011;12384;48.112;18.418;2023-04-23T01:42:19;18.37;;;16.47;;
24259;SDS011;12384;48.112;18.418;2023-04-23T01:44:52;16.60;;;15.20;;
24259;SDS011;12384;48.112;18.418;2023-04-23T01:47:20;18.40;;;16.50;;
24259;SDS011;12384;48.112;18.418;2023-04-23T01:49:49;19.93;;;18.07;;
24259;SDS011;12384;48.112;18.418;2023-04-23T01:52:18;20.33;;;18.33;;
24259;SDS011;12384;48.112;18.418;2023-04-23T01:54:47;19.40;;;17.60;;
24259;SDS011;12384;48.112;18.418;2023-04-23T01:57:16;20.37;;;18.47;;
24259;SDS011;12384;48.112;18.418;2023-04-23T01:59:49;21.10;;;18.87;;
24259;SDS011;12384;48.112;18.418;2023-04-23T02:02:18;25.27;;;22.67;;
24259;SDS011;12384;48.112;18.418;2023-04-23T02:04:47;22.70;;;20.50;;
24259;SDS011;12384;48.112;18.418;2023-04-23T02:07:19;23.23;;;20.83;;
24259;SDS011;12384;48.112;18.418;2023-04-23T02:09:48;22.00;;;19.80;;
24259;SDS011;12384;48.112;18.418;2023-04-23T02:12:17;20.53;;;18.53;;
24259;SDS011;12384;48.112;18.418;2023-04-23T02:14:45;18.03;;;16.47;;
24259;SDS011;12384;48.112;18.418;2023-04-23T02:17:14;16.90;;;15.40;;
24259;SDS011;12384;48.112;18.418;2023-04-23T02:19:42;17.47;;;15.83;;
24259;SDS011;12384;48.112;18.418;2023-04-23T02:22:11;17.17;;;15.47;;
24259;SDS011;12384;48.112;18.418;2023-04-23T02:24:39;15.47;;;14.17;;
24259;SDS011;12384;48.112;18.418;2023-04-23T02:27:10;15.17;;;13.87;;
24259;SDS011;12384;48.112;18.418;2023-04-23T02:29:38;15.37;;;14.07;;
24259;SDS011;12384;48.112;18.418;2023-04-23T02:32:07;15.43;;;14.03;;
24259;SDS011;12384;48.112;18.418;2023-04-23T02:34:36;13.90;;;12.83;;
24259;SDS011;12384;48.112;18.418;2023-04-23T02:37:05;15.50;;;14.23;;
24259;SDS011;12384;48.112;18.418;2023-04-23T02:39:34;14.93;;;13.83;;
24259;SDS011;12384;48.112;18.418;2023-04-23T02:42:05;14.83;;;13.60;;
24259;SDS011;12384;48.112;18.418;2023-04-23T02:44:35;14.77;;;13.57;;
24259;SDS011;12384;48.112;18.418;2023-04-23T02:47:03;14.67;;;13.40;;
24259;SDS011;12384;48.112;18.418;2023-04-23T02:49:32;14.87;;;13.67;;
24259;SDS011;12384;48.112;18.418;2023-04-23T02:52:00;14.13;;;13.03;;
24259;SDS011;12384;48.112;18.418;2023-04-23T02:54:29;14.67;;;13.47;;
24259;SDS011;12384;48.112;18.418;2023-04-23T02:56:58;15.73;;;14.30;;
24259;SDS011;12384;48.112;18.418;2023-04-23T02:59:27;15.47;;;14.20;;
24259;SDS011;12384;48.112;18.418;2023-04-23T03:01:57;16.03;;;14.73;;
24259;SDS011;12384;48.112;18.418;2023-04-23T03:04:25;15.40;;;14.10;;
24259;SDS011;12384;48.112;18.418;2023-04-23T03:06:54;13.93;;;12.83;;
24259;SDS011;12384;48.112;18.418;2023-04-23T03:09:22;14.20;;;13.10;;
24259;SDS011;12384;48.112;18.418;2023-04-23T03:11:51;14.27;;;13.17;;
24259;SDS011;12384;48.112;18.418;2023-04-23T03:14:20;14.47;;;13.27;;
24259;SDS011;12384;48.112;18.418;2023-04-23T03:16:48;15.20;;;14.00;;
24259;SDS011;12384;48.112;18.418;2023-04-23T03:19:18;14.27;;;13.17;;
24259;SDS011;12384;48.112;18.418;2023-04-23T03:21:47;14.80;;;13.60;;
24259;SDS011;12384;48.112;18.418;2023-04-23T03:24:15;15.80;;;14.50;;
24259;SDS011;12384;48.112;18.418;2023-04-23T03:26:44;14.97;;;13.57;;
24259;SDS011;12384;48.112;18.418;2023-04-23T03:29:14;15.20;;;14.10;;
24259;SDS011;12384;48.112;18.418;2023-04-23T03:31:42;14.53;;;13.43;;
24259;SDS011;12384;48.112;18.418;2023-04-23T03:34:11;15.27;;;14.00;;
24259;SDS011;12384;48.112;18.418;2023-04-23T03:36:42;14.77;;;13.67;;
24259;SDS011;12384;48.112;18.418;2023-04-23T03:39:15;14.30;;;13.30;;
24259;SDS011;12384;48.112;18.418;2023-04-23T03:41:48;15.20;;;14.00;;
24259;SDS011;12384;48.112;18.418;2023-04-23T03:44:20;17.13;;;15.73;;
24259;SDS011;12384;48.112;18.418;2023-04-23T03:46:49;15.00;;;13.90;;
24259;SDS011;12384;48.112;18.418;2023-04-23T03:49:19;16.57;;;15.10;;
24259;SDS011;12384;48.112;18.418;2023-04-23T03:51:49;15.67;;;14.47;;
24259;SDS011;12384;48.112;18.418;2023-04-23T03:54:18;15.23;;;14.03;;
24259;SDS011;12384;48.112;18.418;2023-04-23T03:57:09;15.13;;;13.93;;
24259;SDS011;12384;48.112;18.418;2023-04-23T03:59:51;14.80;;;13.60;;
24259;SDS011;12384;48.112;18.418;2023-04-23T04:02:20;16.03;;;14.83;;
24259;SDS011;12384;48.112;18.418;2023-04-23T04:04:51;15.37;;;14.03;;
24259;SDS011;12384;48.112;18.418;2023-04-23T04:07:24;15.10;;;13.67;;
24259;SDS011;12384;48.112;18.418;2023-04-23T04:09:55;15.00;;;13.80;;
24259;SDS011;12384;48.112;18.418;2023-04-23T04:12:25;14.20;;;13.10;;
24259;SDS011;12384;48.112;18.418;2023-04-23T04:14:53;13.10;;;12.17;;
24259;SDS011;12384;48.112;18.418;2023-04-23T04:17:22;14.03;;;13.03;;
24259;SDS011;12384;48.112;18.418;2023-04-23T04:19:50;14.80;;;13.60;;
24259;SDS011;12384;48.112;18.418;2023-04-23T04:22:18;14.60;;;13.57;;
24259;SDS011;12384;48.112;18.418;2023-04-23T04:24:48;15.80;;;14.50;;
24259;SDS011;12384;48.112;18.418;2023-04-23T04:27:18;16.07;;;14.77;;
24259;SDS011;12384;48.112;18.418;2023-04-23T04:29:46;14.97;;;13.87;;
24259;SDS011;12384;48.112;18.418;2023-04-23T04:32:15;16.53;;;14.87;;
24259;SDS011;12384;48.112;18.418;2023-04-23T04:34:43;14.57;;;13.43;;
24259;SDS011;12384;48.112;18.418;2023-04-23T04:37:12;15.80;;;14.50;;
24259;SDS011;12384;48.112;18.418;2023-04-23T04:39:40;14.23;;;12.77;;
24259;SDS011;12384;48.112;18.418;2023-04-23T04:42:10;13.40;;;12.30;;
24259;SDS011;12384;48.112;18.418;2023-04-23T04:44:39;14.27;;;13.10;;
24259;SDS011;12384;48.112;18.418;2023-04-23T04:47:09;14.40;;;13.13;;
24259;SDS011;12384;48.112;18.418;2023-04-23T04:49:39;14.63;;;13.43;;
24259;SDS011;12384;48.112;18.418;2023-04-23T04:52:07;14.40;;;13.20;;
24259;SDS011;12384;48.112;18.418;2023-04-23T04:54:35;14.43;;;13.13;;
24259;SDS011;12384;48.112;18.418;2023-04-23T04:57:04;13.43;;;12.43;;
24259;SDS011;12384;48.112;18.418;2023-04-23T04:59:34;14.13;;;13.03;;
24259;SDS011;12384;48.112;18.418;2023-04-23T05:02:02;14.40;;;13.17;;
24259;SDS011;12384;48.112;18.418;2023-04-23T05:04:31;13.40;;;12.33;;
24259;SDS011;12384;48.112;18.418;2023-04-23T05:06:59;14.17;;;13.03;;
24259;SDS011;12384;48.112;18.418;2023-04-23T05:09:28;14.30;;;13.10;;
24259;SDS011;12384;48.112;18.418;2023-04-23T05:11:56;15.50;;;14.30;;
24259;SDS011;12384;48.112;18.418;2023-04-23T05:14:25;14.27;;;12.97;;
24259;SDS011;12384;48.112;18.418;2023-04-23T05:16:55;13.43;;;12.43;;
24259;SDS011;12384;48.112;18.418;2023-04-23T05:19:24;13.40;;;12.30;;
24259;SDS011;12384;48.112;18.418;2023-04-23T05:21:53;14.10;;;12.80;;
24259;SDS011;12384;48.112;18.418;2023-04-23T05:24:21;14.40;;;13.07;;
24259;SDS011;12384;48.112;18.418;2023-04-23T05:26:49;14.07;;;12.87;;
24259;SDS011;12384;48.112;18.418;2023-04-23T05:29:18;13.27;;;12.17;;
24259;SDS011;12384;48.112;18.418;2023-04-23T05:31:46;12.80;;;11.77;;
24259;SDS011;12384;48.112;18.418;2023-04-23T05:34:17;13.60;;;12.40;;
24259;SDS011;12384;48.112;18.418;2023-04-23T05:36:45;11.97;;;11.17;;
24259;SDS011;12384;48.112;18.418;2023-04-23T05:39:14;13.90;;;12.30;;
24259;SDS011;12384;48.112;18.418;2023-04-23T05:41:42;13.33;;;12.33;;
24259;SDS011;12384;48.112;18.418;2023-04-23T05:44:10;13.07;;;11.90;;
24259;SDS011;12384;48.112;18.418;2023-04-23T05:46:39;13.67;;;12.30;;
24259;SDS011;12384;48.112;18.418;2023-04-23T05:49:07;12.50;;;11.60;;
24259;SDS011;12384;48.112;18.418;2023-04-23T05:51:37;12.70;;;11.53;;
24259;SDS011;12384;48.112;18.418;2023-04-23T05:54:07;11.83;;;10.80;;
24259;SDS011;12384;48.112;18.418;2023-04-23T05:56:35;11.43;;;10.53;;
24259;SDS011;12384;48.112;18.418;2023-04-23T05:59:03;12.27;;;11.27;;
24259;SDS011;12384;48.112;18.418;2023-04-23T06:01:32;11.60;;;10.70;;
24259;SDS011;12384;48.112;18.418;2023-04-23T06:04:00;11.97;;;10.90;;
24259;SDS011;12384;48.112;18.418;2023-04-23T06:06:29;11.90;;;10.90;;
24259;SDS011;12384;48.112;18.418;2023-04-23T06:08:59;12.20;;;10.97;;
24259;SDS011;12384;48.112;18.418;2023-04-23T06:11:28;11.63;;;10.67;;
24259;SDS011;12384;48.112;18.418;2023-04-23T06:13:57;13.93;;;12.70;;
24259;SDS011;12384;48.112;18.418;2023-04-23T06:16:26;11.43;;;10.43;;
24259;SDS011;12384;48.112;18.418;2023-04-23T06:18:54;11.20;;;10.40;;
24259;SDS011;12384;48.112;18.418;2023-04-23T06:21:23;12.67;;;11.67;;
24259;SDS011;12384;48.112;18.418;2023-04-23T06:23:52;12.35;;;11.43;;
24259;SDS011;12384;48.112;18.418;2023-04-23T06:26:22;12.67;;;11.57;;
24259;SDS011;12384;48.112;18.418;2023-04-23T06:28:54;11.80;;;10.88;;
24259;SDS011;12384;48.112;18.418;2023-04-23T06:31:30;12.57;;;11.60;;
24259;SDS011;12384;48.112;18.418;2023-04-23T06:33:58;12.17;;;11.17;;
24259;SDS011;12384;48.112;18.418;2023-04-23T06:36:27;11.80;;;10.90;;
24259;SDS011;12384;48.112;18.418;2023-04-23T06:38:55;12.20;;;11.15;;
24259;SDS011;12384;48.112;18.418;2023-04-23T06:41:25;12.43;;;11.38;;
24259;SDS011;12384;48.112;18.418;2023-04-23T06:44:18;12.73;;;11.73;;
24259;SDS011;12384;48.112;18.418;2023-04-23T06:46:52;12.53;;;10.77;;
24259;SDS011;12384;48.112;18.418;2023-04-23T06:49:21;12.05;;;11.05;;
24259;SDS011;12384;48.112;18.418;2023-04-23T06:51:49;12.68;;;11.68;;
24259;SDS011;12384;48.112;18.418;2023-04-23T06:54:18;12.20;;;11.40;;
24259;SDS011;12384;48.112;18.418;2023-04-23T06:56:48;12.30;;;11.10;;
24259;SDS011;12384;48.112;18.418;2023-04-23T06:59:16;12.20;;;11.30;;
24259;SDS011;12384;48.112;18.418;2023-04-23T07:01:49;12.60;;;11.63;;
24259;SDS011;12384;48.112;18.418;2023-04-23T07:04:17;12.15;;;11.20;;
24259;SDS011;12384;48.112;18.418;2023-04-23T07:06:46;13.85;;;11.18;;
24259;SDS011;12384;48.112;18.418;2023-04-23T07:09:14;12.02;;;11.13;;
24259;SDS011;12384;48.112;18.418;2023-04-23T07:11:43;11.75;;;10.82;;
24259;SDS011;12384;48.112;18.418;2023-04-23T07:14:13;12.52;;;11.60;;
24259;SDS011;12384;48.112;18.418;2023-04-23T07:16:41;11.80;;;10.93;;
24259;SDS011;12384;48.112;18.418;2023-04-23T07:19:10;12.05;;;11.15;;
24259;SDS011;12384;48.112;18.418;2023-04-23T07:21:39;11.93;;;11.02;;
24259;SDS011;12384;48.112;18.418;2023-04-23T07:24:07;12.05;;;11.25;;
24259;SDS011;12384;48.112;18.418;2023-04-23T07:26:36;11.55;;;10.75;;
24259;SDS011;12384;48.112;18.418;2023-04-23T07:29:05;10.88;;;10.15;;
24259;SDS011;12384;48.112;18.418;2023-04-23T07:31:37;11.52;;;10.63;;
24259;SDS011;12384;48.112;18.418;2023-04-23T07:34:08;11.60;;;10.70;;
24259;SDS011;12384;48.112;18.418;2023-04-23T07:36:36;12.20;;;11.40;;
24259;SDS011;12384;48.112;18.418;2023-04-23T07:39:05;12.27;;;11.38;;
24259;SDS011;12384;48.112;18.418;2023-04-23T07:41:33;11.50;;;10.60;;
24259;SDS011;12384;48.112;18.418;2023-04-23T07:44:03;12.40;;;11.18;;
24259;SDS011;12384;48.112;18.418;2023-04-23T07:46:31;10.93;;;9.88;;
24259;SDS011;12384;48.112;18.418;2023-04-23T07:49:01;11.40;;;10.70;;
24259;SDS011;12384;48.112;18.418;2023-04-23T07:51:29;10.45;;;9.75;;
24259;SDS011;12384;48.112;18.418;2023-04-23T07:53:58;11.55;;;10.75;;
24259;SDS011;12384;48.112;18.418;2023-04-23T07:56:26;11.30;;;10.60;;
24259;SDS011;12384;48.112;18.418;2023-04-23T07:58:58;11.82;;;11.02;;
24259;SDS011;12384;48.112;18.418;2023-04-23T08:01:27;13.18;;;12.27;;
24259;SDS011;12384;48.112;18.418;2023-04-23T08:03:55;11.68;;;10.77;;
24259;SDS011;12384;48.112;18.418;2023-04-23T08:06:27;11.45;;;10.52;;
24259;SDS011;12384;48.112;18.418;2023-04-23T08:08:57;11.25;;;10.45;;
24259;SDS011;12384;48.112;18.418;2023-04-23T08:11:25;11.27;;;10.48;;
24259;SDS011;12384;48.112;18.418;2023-04-23T08:13:55;12.10;;;11.10;;
24259;SDS011;12384;48.112;18.418;2023-04-23T08:16:24;12.05;;;11.05;;
24259;SDS011;12384;48.112;18.418;2023-04-23T08:18:53;11.80;;;10.90;;
24259;SDS011;12384;48.112;18.418;2023-04-23T08:21:34;12.25;;;11.25;;
24259;SDS011;12384;48.112;18.418;2023-04-23T08:24:03;11.32;;;10.45;;
24259;SDS011;12384;48.112;18.418;2023-04-23T08:26:33;10.18;;;9.32;;
24259;SDS011;12384;48.112;18.418;2023-04-23T08:29:02;11.48;;;10.65;;
24259;SDS011;12384;48.112;18.418;2023-04-23T08:31:30;11.10;;;10.20;;
24259;SDS011;12384;48.112;18.418;2023-04-23T08:33:59;10.65;;;9.95;;
24259;SDS011;12384;48.112;18.418;2023-04-23T08:36:28;11.73;;;10.73;;
24259;SDS011;12384;48.112;18.418;2023-04-23T08:38:58;11.70;;;10.73;;
24259;SDS011;12384;48.112;18.418;2023-04-23T08:41:32;11.10;;;10.15;;
24259;SDS011;12384;48.112;18.418;2023-04-23T08:44:07;13.48;;;12.32;;
24259;SDS011;12384;48.112;18.418;2023-04-23T08:46:41;13.40;;;12.32;;
24259;SDS011;12384;48.112;18.418;2023-04-23T08:49:12;12.93;;;12.02;;
24259;SDS011;12384;48.112;18.418;2023-04-23T08:51:45;12.85;;;11.90;;
24259;SDS011;12384;48.112;18.418;2023-04-23T08:54:20;12.40;;;11.60;;
24259;SDS011;12384;48.112;18.418;2023-04-23T08:56:53;13.00;;;12.10;;
24259;SDS011;12384;48.112;18.418;2023-04-23T08:59:24;11.90;;;11.00;;
24259;SDS011;12384;48.112;18.418;2023-04-23T09:01:53;12.48;;;11.65;;
24259;SDS011;12384;48.112;18.418;2023-04-23T09:04:22;12.88;;;11.90;;
24259;SDS011;12384;48.112;18.418;2023-04-23T09:06:51;13.75;;;12.55;;
24259;SDS011;12384;48.112;18.418;2023-04-23T09:09:21;13.30;;;12.07;;
24259;SDS011;12384;48.112;18.418;2023-04-23T09:11:52;18.67;;;17.05;;
24259;SDS011;12384;48.112;18.418;2023-04-23T09:14:21;14.55;;;13.48;;
24259;SDS011;12384;48.112;18.418;2023-04-23T09:16:52;12.73;;;11.82;;
24259;SDS011;12384;48.112;18.418;2023-04-23T09:19:21;13.15;;;12.25;;
24259;SDS011;12384;48.112;18.418;2023-04-23T09:21:53;12.85;;;11.93;;
24259;SDS011;12384;48.112;18.418;2023-04-23T09:24:23;12.05;;;11.25;;
24259;SDS011;12384;48.112;18.418;2023-04-23T09:26:52;11.32;;;10.52;;
24259;SDS011;12384;48.112;18.418;2023-04-23T09:29:21;11.23;;;10.43;;
24259;SDS011;12384;48.112;18.418;2023-04-23T09:31:51;11.05;;;10.25;;
24259;SDS011;12384;48.112;18.418;2023-04-23T09:34:22;11.57;;;10.88;;
24259;SDS011;12384;48.112;18.418;2023-04-23T09:36:52;12.23;;;11.23;;
24259;SDS011;12384;48.112;18.418;2023-04-23T09:39:21;11.02;;;10.32;;
24259;SDS011;12384;48.112;18.418;2023-04-23T09:41:51;11.38;;;10.68;;
24259;SDS011;12384;48.112;18.418;2023-04-23T09:44:21;12.15;;;11.15;;
24259;SDS011;12384;48.112;18.418;2023-04-23T09:46:49;12.68;;;11.68;;
24259;SDS011;12384;48.112;18.418;2023-04-23T09:49:18;11.82;;;10.82;;
24259;SDS011;12384;48.112;18.418;2023-04-23T09:51:48;12.70;;;11.70;;
24259;SDS011;12384;48.112;18.418;2023-04-23T09:54:17;12.20;;;11.30;;
24259;SDS011;12384;48.112;18.418;2023-04-23T09:56:49;12.35;;;11.40;;
24259;SDS011;12384;48.112;18.418;2023-04-23T09:59:20;12.48;;;11.57;;
24259;SDS011;12384;48.112;18.418;2023-04-23T10:02:05;12.63;;;11.73;;
24259;SDS011;12384;48.112;18.418;2023-04-23T10:04:36;12.57;;;11.23;;
24259;SDS011;12384;48.112;18.418;2023-04-23T10:07:06;11.95;;;10.98;;
24259;SDS011;12384;48.112;18.418;2023-04-23T10:09:42;10.68;;;9.77;;
24259;SDS011;12384;48.112;18.418;2023-04-23T10:12:12;11.52;;;10.45;;
24259;SDS011;12384;48.112;18.418;2023-04-23T10:14:45;11.25;;;10.50;;
24259;SDS011;12384;48.112;18.418;2023-04-23T10:17:19;10.93;;;10.13;;
24259;SDS011;12384;48.112;18.418;2023-04-23T10:19:47;10.13;;;9.48;;
24259;SDS011;12384;48.112;18.418;2023-04-23T10:22:18;10.95;;;10.02;;
24259;SDS011;12384;48.112;18.418;2023-04-23T10:24:52;11.30;;;10.20;;
24259;SDS011;12384;48.112;18.418;2023-04-23T10:27:27;10.05;;;9.13;;
24259;SDS011;12384;48.112;18.418;2023-04-23T10:30:14;9.98;;;9.23;;
24259;SDS011;12384;48.112;18.418;2023-04-23T10:32:43;8.60;;;8.10;;
24259;SDS011;12384;48.112;18.418;2023-04-23T10:35:14;9.82;;;8.85;;
24259;SDS011;12384;48.112;18.418;2023-04-23T10:37:43;9.73;;;9.13;;
24259;SDS011;12384;48.112;18.418;2023-04-23T10:40:15;9.77;;;9.07;;
24259;SDS011;12384;48.112;18.418;2023-04-23T10:42:49;9.70;;;9.10;;
24259;SDS011;12384;48.112;18.418;2023-04-23T10:45:18;9.13;;;8.60;;
24259;SDS011;12384;48.112;18.418;2023-04-23T10:47:51;9.38;;;8.68;;
24259;SDS011;12384;48.112;18.418;2023-04-23T10:50:23;10.23;;;9.50;;
24259;SDS011;12384;48.112;18.418;2023-04-23T10:52:52;10.20;;;9.30;;
24259;SDS011;12384;48.112;18.418;2023-04-23T10:55:24;10.07;;;9.05;;
24259;SDS011;12384;48.112;18.418;2023-04-23T10:57:58;9.00;;;8.40;;
24259;SDS011;12384;48.112;18.418;2023-04-23T11:00:29;9.32;;;8.70;;
24259;SDS011;12384;48.112;18.418;2023-04-23T11:03:30;9.00;;;8.40;;
24259;SDS011;12384;48.112;18.418;2023-04-23T11:06:11;9.80;;;8.93;;
24259;SDS011;12384;48.112;18.418;2023-04-23T11:08:49;9.98;;;9.20;;
24259;SDS011;12384;48.112;18.418;2023-04-23T11:11:23;9.65;;;9.00;;
24259;SDS011;12384;48.112;18.418;2023-04-23T11:14:11;9.88;;;9.02;;
24259;SDS011;12384;48.112;18.418;2023-04-23T11:16:41;9.43;;;8.70;;
24259;SDS011;12384;48.112;18.418;2023-04-23T11:19:10;9.27;;;8.57;;
24259;SDS011;12384;48.112;18.418;2023-04-23T11:21:59;10.10;;;9.40;;
24259;SDS011;12384;48.112;18.418;2023-04-23T11:24:29;10.23;;;9.43;;
24259;SDS011;12384;48.112;18.418;2023-04-23T11:26:59;9.45;;;8.70;;
24259;SDS011;12384;48.112;18.418;2023-04-23T11:29:29;10.88;;;9.10;;
24259;SDS011;12384;48.112;18.418;2023-04-23T11:31:58;9.68;;;9.13;;
24259;SDS011;12384;48.112;18.418;2023-04-23T11:34:30;8.98;;;8.48;;
24259;SDS011;12384;48.112;18.418;2023-04-23T11:37:00;9.63;;;8.93;;
24259;SDS011;12384;48.112;18.418;2023-04-23T11:39:30;10.40;;;9.60;;
24259;SDS011;12384;48.112;18.418;2023-04-23T11:41:59;10.98;;;10.18;;
24259;SDS011;12384;48.112;18.418;2023-04-23T11:44:30;9.93;;;9.18;;
24259;SDS011;12384;48.112;18.418;2023-04-23T11:46:59;10.02;;;9.38;;
24259;SDS011;12384;48.112;18.418;2023-04-23T11:49:28;9.70;;;9.10;;
24259;SDS011;12384;48.112;18.418;2023-04-23T11:51:58;8.88;;;8.23;;
24259;SDS011;12384;48.112;18.418;2023-04-23T11:54:28;9.15;;;8.48;;
24259;SDS011;12384;48.112;18.418;2023-04-23T11:56:56;9.63;;;8.82;;
24259;SDS011;12384;48.112;18.418;2023-04-23T11:59:25;8.88;;;8.38;;
24259;SDS011;12384;48.112;18.418;2023-04-23T12:01:57;8.45;;;7.95;;
24259;SDS011;12384;48.112;18.418;2023-04-23T12:04:26;9.02;;;8.38;;
24259;SDS011;12384;48.112;18.418;2023-04-23T12:06:56;9.77;;;9.10;;
24259;SDS011;12384;48.112;18.418;2023-04-23T12:09:26;10.20;;;9.50;;
24259;SDS011;12384;48.112;18.418;2023-04-23T12:11:56;10.00;;;9.20;;
24259;SDS011;12384;48.112;18.418;2023-04-23T12:14:25;8.88;;;8.38;;
24259;SDS011;12384;48.112;18.418;2023-04-23T12:16:57;9.65;;;8.95;;
24259;SDS011;12384;48.112;18.418;2023-04-23T12:19:35;9.70;;;8.90;;
24259;SDS011;12384;48.112;18.418;2023-04-23T12:22:06;9.05;;;8.45;;
24259;SDS011;12384;48.112;18.418;2023-04-23T12:24:44;9.20;;;8.65;;
24259;SDS011;12384;48.112;18.418;2023-04-23T12:27:14;9.07;;;8.45;;
24259;SDS011;12384;48.112;18.418;2023-04-23T12:29:47;9.20;;;8.55;;
24259;SDS011;12384;48.112;18.418;2023-04-23T12:32:18;9.15;;;8.55;;
24259;SDS011;12384;48.112;18.418;2023-04-23T12:34:51;9.50;;;9.00;;
24259;SDS011;12384;48.112;18.418;2023-04-23T12:37:22;9.43;;;8.63;;
24259;SDS011;12384;48.112;18.418;2023-04-23T12:39:51;9.65;;;9.05;;
24259;SDS011;12384;48.112;18.418;2023-04-23T12:42:22;9.45;;;8.65;;
24259;SDS011;12384;48.112;18.418;2023-04-23T12:44:51;9.60;;;8.90;;
24259;SDS011;12384;48.112;18.418;2023-04-23T12:47:22;9.10;;;8.50;;
24259;SDS011;12384;48.112;18.418;2023-04-23T12:49:51;9.30;;;8.65;;
24259;SDS011;12384;48.112;18.418;2023-04-23T12:52:21;9.18;;;8.48;;
24259;SDS011;12384;48.112;18.418;2023-04-23T12:54:49;9.23;;;8.73;;
24259;SDS011;12384;48.112;18.418;2023-04-23T12:57:22;9.40;;;8.80;;
24259;SDS011;12384;48.112;18.418;2023-04-23T12:59:50;9.10;;;8.38;;
24259;SDS011;12384;48.112;18.418;2023-04-23T13:02:21;7.90;;;7.40;;
24259;SDS011;12384;48.112;18.418;2023-04-23T13:04:52;8.18;;;7.50;;
24259;SDS011;12384;48.112;18.418;2023-04-23T13:07:26;8.05;;;7.45;;
24259;SDS011;12384;48.112;18.418;2023-04-23T13:09:55;8.05;;;7.47;;
24259;SDS011;12384;48.112;18.418;2023-04-23T13:12:25;8.45;;;7.72;;
24259;SDS011;12384;48.112;18.418;2023-04-23T13:14:53;8.57;;;7.97;;
24259;SDS011;12384;48.112;18.418;2023-04-23T13:17:24;9.07;;;8.48;;
24259;SDS011;12384;48.112;18.418;2023-04-23T13:19:53;8.15;;;7.65;;
24259;SDS011;12384;48.112;18.418;2023-04-23T13:22:21;8.63;;;8.00;;
24259;SDS011;12384;48.112;18.418;2023-04-23T13:24:54;8.32;;;7.82;;
24259;SDS011;12384;48.112;18.418;2023-04-23T13:27:23;8.50;;;7.93;;
24259;SDS011;12384;48.112;18.418;2023-04-23T13:29:53;9.10;;;8.50;;
24259;SDS011;12384;48.112;18.418;2023-04-23T13:32:21;8.88;;;8.30;;
24259;SDS011;12384;48.112;18.418;2023-04-23T13:34:53;8.65;;;8.05;;
24259;SDS011;12384;48.112;18.418;2023-04-23T13:37:22;7.97;;;7.57;;
24259;SDS011;12384;48.112;18.418;2023-04-23T13:39:52;8.48;;;7.78;;
24259;SDS011;12384;48.112;18.418;2023-04-23T13:42:20;8.23;;;7.72;;
24259;SDS011;12384;48.112;18.418;2023-04-23T13:44:49;9.13;;;8.43;;
24259;SDS011;12384;48.112;18.418;2023-04-23T13:47:18;8.95;;;8.45;;
24259;SDS011;12384;48.112;18.418;2023-04-23T13:49:47;9.38;;;8.68;;
24259;SDS011;12384;48.112;18.418;2023-04-23T13:52:16;9.98;;;9.32;;
24259;SDS011;12384;48.112;18.418;2023-04-23T13:54:45;9.45;;;8.88;;
24259;SDS011;12384;48.112;18.418;2023-04-23T13:57:14;9.35;;;8.73;;
24259;SDS011;12384;48.112;18.418;2023-04-23T13:59:43;9.93;;;9.32;;
24259;SDS011;12384;48.112;18.418;2023-04-23T14:02:11;10.18;;;9.48;;
24259;SDS011;12384;48.112;18.418;2023-04-23T14:04:40;9.20;;;8.50;;
24259;SDS011;12384;48.112;18.418;2023-04-23T14:07:09;10.07;;;9.25;;
24259;SDS011;12384;48.112;18.418;2023-04-23T14:09:38;10.10;;;9.50;;
24259;SDS011;12384;48.112;18.418;2023-04-23T14:12:07;9.98;;;9.27;;
24259;SDS011;12384;48.112;18.418;2023-04-23T14:14:36;10.13;;;9.43;;
24259;SDS011;12384;48.112;18.418;2023-04-23T14:17:04;10.55;;;9.80;;
24259;SDS011;12384;48.112;18.418;2023-04-23T14:19:33;10.43;;;9.70;;
24259;SDS011;12384;48.112;18.418;2023-04-23T14:22:03;10.82;;;10.00;;
24259;SDS011;12384;48.112;18.418;2023-04-23T14:24:34;10.55;;;9.75;;
24259;SDS011;12384;48.112;18.418;2023-04-23T14:27:06;10.15;;;9.25;;
24259;SDS011;12384;48.112;18.418;2023-04-23T14:29:35;10.30;;;9.57;;
24259;SDS011;12384;48.112;18.418;2023-04-23T14:32:08;10.88;;;10.07;;